sensor_id;sensor_type;location;lat;lon;timestamp;P1;durP1;ratioP1;P2;durP2;ratioP2
76107;SDS011;64834;52.516;10.528;2024-03-06T00:01:41;10.48;;;5.93;;
76107;SDS011;64834;52.516;10.528;2024-03-06T00:04:06;12.05;;;5.88;;
76107;SDS011;64834;52.516;10.528;2024-03-06T00:06:32;11.65;;;5.70;;
76107;SDS011;64834;52.516;10.528;2024-03-06T00:08:57;13.48;;;5.43;;
76107;SDS011;64834;52.516;10.528;2024-03-06T00:11:23;13.10;;;6.50;;
76107;SDS011;64834;52.516;10.528;2024-03-06T00:13:48;12.80;;;5.85;;
76107;SDS011;64834;52.516;10.528;2024-03-06T00:16:14;9.48;;;4.78;;
76107;SDS011;64834;52.516;10.528;2024-03-06T00:18:39;11.30;;;5.60;;
76107;SDS011;64834;52.516;10.528;2024-03-06T00:21:05;14.60;;;5.93;;
76107;SDS011;64834;52.516;10.528;2024-03-06T00:23:31;14.05;;;6.47;;
76107;SDS011;64834;52.516;10.528;2024-03-06T00:25:57;16.98;;;6.35;;
76107;SDS011;64834;52.516;10.528;2024-03-06T00:28:22;11.80;;;5.32;;
76107;SDS011;64834;52.516;10.528;2024-03-06T00:30:47;10.23;;;6.25;;
76107;SDS011;64834;52.516;10.528;2024-03-06T00:33:13;11.38;;;6.05;;
76107;SDS011;64834;52.516;10.528;2024-03-06T00:35:38;13.40;;;6.55;;
76107;SDS011;64834;52.516;10.528;2024-03-06T00:38:03;13.43;;;5.90;;
76107;SDS011;64834;52.516;10.528;2024-03-06T00:40:29;10.65;;;6.35;;
76107;SDS011;64834;52.516;10.528;2024-03-06T00:45:23;12.32;;;7.00;;
76107;SDS011;64834;52.516;10.528;2024-03-06T00:47:49;13.90;;;6.30;;
76107;SDS011;64834;52.516;10.528;2024-03-06T00:50:14;11.57;;;5.90;;
76107;SDS011;64834;52.516;10.528;2024-03-06T00:52:41;11.80;;;6.10;;
76107;SDS011;64834;52.516;10.528;2024-03-06T00:55:07;13.65;;;6.30;;
76107;SDS011;64834;52.516;10.528;2024-03-06T00:57:33;13.75;;;7.45;;
76107;SDS011;64834;52.516;10.528;2024-03-06T00:59:58;12.73;;;6.30;;
76107;SDS011;64834;52.516;10.528;2024-03-06T01:02:24;11.38;;;6.22;;
76107;SDS011;64834;52.516;10.528;2024-03-06T01:04:49;17.55;;;6.85;;
76107;SDS011;64834;52.516;10.528;2024-03-06T01:07:14;16.70;;;7.00;;
76107;SDS011;64834;52.516;10.528;2024-03-06T01:09:40;14.68;;;7.57;;
76107;SDS011;64834;52.516;10.528;2024-03-06T01:12:05;15.45;;;7.32;;
76107;SDS011;64834;52.516;10.528;2024-03-06T01:14:30;11.82;;;6.35;;
76107;SDS011;64834;52.516;10.528;2024-03-06T01:16:56;14.57;;;7.03;;
76107;SDS011;64834;52.516;10.528;2024-03-06T01:19:21;12.85;;;6.40;;
76107;SDS011;64834;52.516;10.528;2024-03-06T01:21:47;15.95;;;7.10;;
76107;SDS011;64834;52.516;10.528;2024-03-06T01:24:13;14.35;;;6.93;;
76107;SDS011;64834;52.516;10.528;2024-03-06T01:26:39;13.15;;;7.47;;
76107;SDS011;64834;52.516;10.528;2024-03-06T01:29:05;13.23;;;6.95;;
76107;SDS011;64834;52.516;10.528;2024-03-06T01:31:30;14.52;;;7.35;;
76107;SDS011;64834;52.516;10.528;2024-03-06T01:33:56;13.02;;;6.55;;
76107;SDS011;64834;52.516;10.528;2024-03-06T01:36:21;15.80;;;7.65;;
76107;SDS011;64834;52.516;10.528;2024-03-06T01:38:47;14.85;;;6.82;;
76107;SDS011;64834;52.516;10.528;2024-03-06T01:41:12;15.85;;;7.32;;
76107;SDS011;64834;52.516;10.528;2024-03-06T01:43:38;16.23;;;6.90;;
76107;SDS011;64834;52.516;10.528;2024-03-06T01:46:04;15.10;;;7.20;;
76107;SDS011;64834;52.516;10.528;2024-03-06T01:48:30;17.40;;;7.32;;
76107;SDS011;64834;52.516;10.528;2024-03-06T01:50:56;14.80;;;6.95;;
76107;SDS011;64834;52.516;10.528;2024-03-06T01:53:24;12.93;;;6.35;;
76107;SDS011;64834;52.516;10.528;2024-03-06T01:55:50;12.40;;;6.95;;
76107;SDS011;64834;52.516;10.528;2024-03-06T01:58:15;13.48;;;6.40;;
76107;SDS011;64834;52.516;10.528;2024-03-06T02:00:41;12.32;;;6.30;;
76107;SDS011;64834;52.516;10.528;2024-03-06T02:03:06;14.65;;;6.80;;
76107;SDS011;64834;52.516;10.528;2024-03-06T02:05:32;14.30;;;6.93;;
76107;SDS011;64834;52.516;10.528;2024-03-06T02:07:58;14.70;;;7.03;;
76107;SDS011;64834;52.516;10.528;2024-03-06T02:10:27;14.13;;;6.43;;
76107;SDS011;64834;52.516;10.528;2024-03-06T02:12:53;13.65;;;6.88;;
76107;SDS011;64834;52.516;10.528;2024-03-06T02:15:19;14.55;;;7.00;;
76107;SDS011;64834;52.516;10.528;2024-03-06T02:17:45;14.63;;;6.65;;
76107;SDS011;64834;52.516;10.528;2024-03-06T02:20:11;18.40;;;6.82;;
76107;SDS011;64834;52.516;10.528;2024-03-06T02:22:39;14.00;;;6.75;;
76107;SDS011;64834;52.516;10.528;2024-03-06T02:25:07;15.00;;;6.60;;
76107;SDS011;64834;52.516;10.528;2024-03-06T02:27:33;15.57;;;7.13;;
76107;SDS011;64834;52.516;10.528;2024-03-06T02:29:58;14.02;;;6.53;;
76107;SDS011;64834;52.516;10.528;2024-03-06T02:32:24;12.13;;;6.40;;
76107;SDS011;64834;52.516;10.528;2024-03-06T02:34:50;13.13;;;7.28;;
76107;SDS011;64834;52.516;10.528;2024-03-06T02:37:15;14.25;;;7.35;;
76107;SDS011;64834;52.516;10.528;2024-03-06T02:39:41;13.25;;;6.47;;
76107;SDS011;64834;52.516;10.528;2024-03-06T02:42:06;13.68;;;7.07;;
76107;SDS011;64834;52.516;10.528;2024-03-06T02:44:32;12.57;;;6.07;;
76107;SDS011;64834;52.516;10.528;2024-03-06T02:46:58;14.80;;;7.30;;
76107;SDS011;64834;52.516;10.528;2024-03-06T02:49:23;13.50;;;6.68;;
76107;SDS011;64834;52.516;10.528;2024-03-06T02:51:49;14.52;;;6.72;;
76107;SDS011;64834;52.516;10.528;2024-03-06T02:54:14;13.35;;;6.90;;
76107;SDS011;64834;52.516;10.528;2024-03-06T02:56:39;15.27;;;6.40;;
76107;SDS011;64834;52.516;10.528;2024-03-06T02:59:05;14.65;;;6.45;;
76107;SDS011;64834;52.516;10.528;2024-03-06T03:01:31;15.30;;;7.45;;
76107;SDS011;64834;52.516;10.528;2024-03-06T03:03:56;14.05;;;6.60;;
76107;SDS011;64834;52.516;10.528;2024-03-06T03:06:22;13.40;;;6.97;;
76107;SDS011;64834;52.516;10.528;2024-03-06T03:08:49;16.42;;;7.50;;
76107;SDS011;64834;52.516;10.528;2024-03-06T03:11:14;13.98;;;7.00;;
76107;SDS011;64834;52.516;10.528;2024-03-06T03:13:40;14.95;;;6.32;;
76107;SDS011;64834;52.516;10.528;2024-03-06T03:16:06;12.90;;;6.90;;
76107;SDS011;64834;52.516;10.528;2024-03-06T03:18:32;13.48;;;6.53;;
76107;SDS011;64834;52.516;10.528;2024-03-06T03:20:57;13.50;;;6.65;;
76107;SDS011;64834;52.516;10.528;2024-03-06T03:23:23;12.48;;;6.20;;
76107;SDS011;64834;52.516;10.528;2024-03-06T03:25:48;13.75;;;6.68;;
76107;SDS011;64834;52.516;10.528;2024-03-06T03:28:14;16.85;;;6.95;;
76107;SDS011;64834;52.516;10.528;2024-03-06T03:30:39;13.88;;;7.20;;
76107;SDS011;64834;52.516;10.528;2024-03-06T03:33:04;14.82;;;7.10;;
76107;SDS011;64834;52.516;10.528;2024-03-06T03:35:30;14.00;;;7.00;;
76107;SDS011;64834;52.516;10.528;2024-03-06T03:37:59;17.00;;;7.97;;
76107;SDS011;64834;52.516;10.528;2024-03-06T03:40:25;18.10;;;7.35;;
76107;SDS011;64834;52.516;10.528;2024-03-06T03:42:50;15.25;;;7.40;;
76107;SDS011;64834;52.516;10.528;2024-03-06T03:45:15;15.90;;;7.65;;
76107;SDS011;64834;52.516;10.528;2024-03-06T03:47:40;13.25;;;6.47;;
76107;SDS011;64834;52.516;10.528;2024-03-06T03:50:08;14.43;;;7.55;;
76107;SDS011;64834;52.516;10.528;2024-03-06T03:52:33;15.45;;;7.50;;
76107;SDS011;64834;52.516;10.528;2024-03-06T03:54:59;18.83;;;8.40;;
76107;SDS011;64834;52.516;10.528;2024-03-06T03:57:24;15.43;;;7.05;;
76107;SDS011;64834;52.516;10.528;2024-03-06T03:59:50;14.77;;;8.60;;
76107;SDS011;64834;52.516;10.528;2024-03-06T04:02:16;16.25;;;8.65;;
76107;SDS011;64834;52.516;10.528;2024-03-06T04:04:42;15.55;;;7.72;;
76107;SDS011;64834;52.516;10.528;2024-03-06T04:07:07;16.92;;;7.32;;
76107;SDS011;64834;52.516;10.528;2024-03-06T04:09:33;18.13;;;8.30;;
76107;SDS011;64834;52.516;10.528;2024-03-06T04:12:01;14.50;;;7.28;;
76107;SDS011;64834;52.516;10.528;2024-03-06T04:14:27;16.55;;;7.80;;
76107;SDS011;64834;52.516;10.528;2024-03-06T04:16:52;17.50;;;8.15;;
76107;SDS011;64834;52.516;10.528;2024-03-06T04:19:17;16.02;;;8.32;;
76107;SDS011;64834;52.516;10.528;2024-03-06T04:21:43;16.52;;;7.82;;
76107;SDS011;64834;52.516;10.528;2024-03-06T04:24:09;17.08;;;8.80;;
76107;SDS011;64834;52.516;10.528;2024-03-06T04:26:34;15.43;;;7.80;;
76107;SDS011;64834;52.516;10.528;2024-03-06T04:29:00;16.38;;;8.30;;
76107;SDS011;64834;52.516;10.528;2024-03-06T04:31:25;18.73;;;8.65;;
76107;SDS011;64834;52.516;10.528;2024-03-06T04:33:50;17.38;;;8.38;;
76107;SDS011;64834;52.516;10.528;2024-03-06T04:36:16;15.70;;;8.35;;
76107;SDS011;64834;52.516;10.528;2024-03-06T04:38:41;15.63;;;7.65;;
76107;SDS011;64834;52.516;10.528;2024-03-06T04:41:07;15.38;;;7.75;;
76107;SDS011;64834;52.516;10.528;2024-03-06T04:43:32;17.83;;;8.25;;
76107;SDS011;64834;52.516;10.528;2024-03-06T04:45:58;18.77;;;9.07;;
76107;SDS011;64834;52.516;10.528;2024-03-06T04:48:23;19.05;;;8.40;;
76107;SDS011;64834;52.516;10.528;2024-03-06T04:50:48;22.45;;;8.90;;
76107;SDS011;64834;52.516;10.528;2024-03-06T04:53:14;17.65;;;8.43;;
76107;SDS011;64834;52.516;10.528;2024-03-06T04:55:39;18.95;;;8.57;;
76107;SDS011;64834;52.516;10.528;2024-03-06T04:58:04;18.40;;;9.23;;
76107;SDS011;64834;52.516;10.528;2024-03-06T05:00:30;19.95;;;10.65;;
76107;SDS011;64834;52.516;10.528;2024-03-06T05:02:56;18.25;;;8.85;;
76107;SDS011;64834;52.516;10.528;2024-03-06T05:05:21;16.13;;;7.82;;
76107;SDS011;64834;52.516;10.528;2024-03-06T05:07:47;17.15;;;7.97;;
76107;SDS011;64834;52.516;10.528;2024-03-06T05:10:13;20.25;;;9.82;;
76107;SDS011;64834;52.516;10.528;2024-03-06T05:12:38;17.27;;;8.57;;
76107;SDS011;64834;52.516;10.528;2024-03-06T05:15:03;21.90;;;9.65;;
76107;SDS011;64834;52.516;10.528;2024-03-06T05:17:29;18.27;;;9.07;;
76107;SDS011;64834;52.516;10.528;2024-03-06T05:19:54;21.70;;;9.30;;
76107;SDS011;64834;52.516;10.528;2024-03-06T05:22:20;18.92;;;8.68;;
76107;SDS011;64834;52.516;10.528;2024-03-06T05:24:46;21.58;;;10.20;;
76107;SDS011;64834;52.516;10.528;2024-03-06T05:27:11;17.83;;;8.48;;
76107;SDS011;64834;52.516;10.528;2024-03-06T05:29:42;20.70;;;9.93;;
76107;SDS011;64834;52.516;10.528;2024-03-06T05:32:08;16.90;;;8.60;;
76107;SDS011;64834;52.516;10.528;2024-03-06T05:34:33;22.77;;;8.95;;
76107;SDS011;64834;52.516;10.528;2024-03-06T05:36:59;21.55;;;9.63;;
76107;SDS011;64834;52.516;10.528;2024-03-06T05:39:26;20.48;;;10.38;;
76107;SDS011;64834;52.516;10.528;2024-03-06T05:41:51;21.30;;;10.10;;
76107;SDS011;64834;52.516;10.528;2024-03-06T05:44:17;17.92;;;10.18;;
76107;SDS011;64834;52.516;10.528;2024-03-06T05:46:43;21.48;;;8.82;;
76107;SDS011;64834;52.516;10.528;2024-03-06T05:49:10;19.58;;;9.63;;
76107;SDS011;64834;52.516;10.528;2024-03-06T05:51:35;19.63;;;9.77;;
76107;SDS011;64834;52.516;10.528;2024-03-06T05:54:01;19.90;;;10.57;;
76107;SDS011;64834;52.516;10.528;2024-03-06T05:56:26;19.60;;;11.23;;
76107;SDS011;64834;52.516;10.528;2024-03-06T05:58:51;21.20;;;10.45;;
76107;SDS011;64834;52.516;10.528;2024-03-06T06:01:17;21.05;;;9.25;;
76107;SDS011;64834;52.516;10.528;2024-03-06T06:03:48;21.83;;;10.93;;
76107;SDS011;64834;52.516;10.528;2024-03-06T06:06:17;18.83;;;10.10;;
76107;SDS011;64834;52.516;10.528;2024-03-06T06:08:44;22.85;;;10.70;;
76107;SDS011;64834;52.516;10.528;2024-03-06T06:11:10;23.80;;;10.43;;
76107;SDS011;64834;52.516;10.528;2024-03-06T06:13:36;20.20;;;9.30;;
76107;SDS011;64834;52.516;10.528;2024-03-06T06:16:01;21.63;;;9.68;;
76107;SDS011;64834;52.516;10.528;2024-03-06T06:18:29;19.60;;;9.55;;
76107;SDS011;64834;52.516;10.528;2024-03-06T06:20:56;22.33;;;10.55;;
76107;SDS011;64834;52.516;10.528;2024-03-06T06:25:52;21.95;;;10.02;;
76107;SDS011;64834;52.516;10.528;2024-03-06T06:28:18;20.55;;;9.38;;
76107;SDS011;64834;52.516;10.528;2024-03-06T06:30:43;19.40;;;9.68;;
76107;SDS011;64834;52.516;10.528;2024-03-06T06:33:08;19.65;;;10.18;;
76107;SDS011;64834;52.516;10.528;2024-03-06T06:35:34;22.20;;;10.43;;
76107;SDS011;64834;52.516;10.528;2024-03-06T06:38:00;21.05;;;10.60;;
76107;SDS011;64834;52.516;10.528;2024-03-06T06:40:26;22.48;;;9.48;;
76107;SDS011;64834;52.516;10.528;2024-03-06T06:42:53;17.63;;;9.00;;
76107;SDS011;64834;52.516;10.528;2024-03-06T06:45:18;24.83;;;9.90;;
76107;SDS011;64834;52.516;10.528;2024-03-06T06:47:45;18.50;;;9.05;;
76107;SDS011;64834;52.516;10.528;2024-03-06T06:50:10;19.65;;;9.50;;
76107;SDS011;64834;52.516;10.528;2024-03-06T06:52:37;20.25;;;9.45;;
76107;SDS011;64834;52.516;10.528;2024-03-06T06:55:02;22.58;;;10.35;;
76107;SDS011;64834;52.516;10.528;2024-03-06T06:57:29;21.25;;;10.07;;
76107;SDS011;64834;52.516;10.528;2024-03-06T06:59:54;21.35;;;10.13;;
76107;SDS011;64834;52.516;10.528;2024-03-06T07:02:19;22.17;;;10.13;;
76107;SDS011;64834;52.516;10.528;2024-03-06T07:04:44;20.70;;;9.85;;
76107;SDS011;64834;52.516;10.528;2024-03-06T07:07:10;19.63;;;9.38;;
76107;SDS011;64834;52.516;10.528;2024-03-06T07:09:35;23.48;;;10.50;;
76107;SDS011;64834;52.516;10.528;2024-03-06T07:12:00;20.35;;;9.50;;
76107;SDS011;64834;52.516;10.528;2024-03-06T07:14:26;20.75;;;10.65;;
76107;SDS011;64834;52.516;10.528;2024-03-06T07:16:51;20.23;;;9.73;;
76107;SDS011;64834;52.516;10.528;2024-03-06T07:19:16;20.55;;;9.60;;
76107;SDS011;64834;52.516;10.528;2024-03-06T07:21:42;19.45;;;9.68;;
76107;SDS011;64834;52.516;10.528;2024-03-06T07:24:07;23.00;;;9.85;;
76107;SDS011;64834;52.516;10.528;2024-03-06T07:26:33;21.70;;;10.73;;
76107;SDS011;64834;52.516;10.528;2024-03-06T07:28:58;21.98;;;10.40;;
76107;SDS011;64834;52.516;10.528;2024-03-06T07:31:24;20.08;;;10.10;;
76107;SDS011;64834;52.516;10.528;2024-03-06T07:33:49;21.02;;;9.27;;
76107;SDS011;64834;52.516;10.528;2024-03-06T07:36:15;20.65;;;10.13;;
76107;SDS011;64834;52.516;10.528;2024-03-06T07:38:41;20.33;;;9.30;;
76107;SDS011;64834;52.516;10.528;2024-03-06T07:41:06;17.65;;;9.48;;
76107;SDS011;64834;52.516;10.528;2024-03-06T07:43:32;20.05;;;9.63;;
76107;SDS011;64834;52.516;10.528;2024-03-06T07:45:57;21.65;;;9.82;;
76107;SDS011;64834;52.516;10.528;2024-03-06T07:48:23;21.83;;;10.48;;
76107;SDS011;64834;52.516;10.528;2024-03-06T07:50:49;19.92;;;9.13;;
76107;SDS011;64834;52.516;10.528;2024-03-06T07:53:14;23.55;;;9.23;;
76107;SDS011;64834;52.516;10.528;2024-03-06T07:55:41;20.23;;;10.13;;
76107;SDS011;64834;52.516;10.528;2024-03-06T07:58:06;16.13;;;8.43;;
76107;SDS011;64834;52.516;10.528;2024-03-06T08:00:33;15.85;;;8.93;;
76107;SDS011;64834;52.516;10.528;2024-03-06T08:02:58;19.85;;;9.63;;
76107;SDS011;64834;52.516;10.528;2024-03-06T08:05:25;21.40;;;9.27;;
76107;SDS011;64834;52.516;10.528;2024-03-06T08:07:51;20.52;;;10.25;;
76107;SDS011;64834;52.516;10.528;2024-03-06T08:10:16;20.15;;;9.68;;
76107;SDS011;64834;52.516;10.528;2024-03-06T08:12:43;15.38;;;7.90;;
76107;SDS011;64834;52.516;10.528;2024-03-06T08:15:10;18.48;;;9.73;;
76107;SDS011;64834;52.516;10.528;2024-03-06T08:17:41;19.48;;;9.40;;
76107;SDS011;64834;52.516;10.528;2024-03-06T08:20:08;20.85;;;9.80;;
76107;SDS011;64834;52.516;10.528;2024-03-06T08:22:35;19.10;;;8.85;;
76107;SDS011;64834;52.516;10.528;2024-03-06T08:27:32;19.17;;;9.30;;
76107;SDS011;64834;52.516;10.528;2024-03-06T08:29:57;19.92;;;9.13;;
76107;SDS011;64834;52.516;10.528;2024-03-06T08:32:22;19.42;;;8.98;;
76107;SDS011;64834;52.516;10.528;2024-03-06T08:34:47;19.20;;;8.68;;
76107;SDS011;64834;52.516;10.528;2024-03-06T08:37:13;18.75;;;8.07;;
76107;SDS011;64834;52.516;10.528;2024-03-06T08:39:38;19.55;;;9.57;;
76107;SDS011;64834;52.516;10.528;2024-03-06T08:42:04;19.20;;;9.48;;
76107;SDS011;64834;52.516;10.528;2024-03-06T08:44:30;16.88;;;8.80;;
76107;SDS011;64834;52.516;10.528;2024-03-06T08:46:55;20.83;;;10.18;;
76107;SDS011;64834;52.516;10.528;2024-03-06T08:49:21;19.48;;;8.90;;
76107;SDS011;64834;52.516;10.528;2024-03-06T08:51:46;19.98;;;9.35;;
76107;SDS011;64834;52.516;10.528;2024-03-06T08:54:11;15.43;;;7.53;;
76107;SDS011;64834;52.516;10.528;2024-03-06T08:56:37;18.35;;;8.65;;
76107;SDS011;64834;52.516;10.528;2024-03-06T08:59:02;17.50;;;9.35;;
76107;SDS011;64834;52.516;10.528;2024-03-06T09:01:27;17.15;;;8.90;;
76107;SDS011;64834;52.516;10.528;2024-03-06T09:03:53;20.27;;;9.43;;
76107;SDS011;64834;52.516;10.528;2024-03-06T09:06:18;21.88;;;9.18;;
76107;SDS011;64834;52.516;10.528;2024-03-06T09:08:43;17.20;;;8.30;;
76107;SDS011;64834;52.516;10.528;2024-03-06T09:11:09;16.52;;;8.82;;
76107;SDS011;64834;52.516;10.528;2024-03-06T09:13:34;15.63;;;9.20;;
76107;SDS011;64834;52.516;10.528;2024-03-06T09:15:59;17.50;;;9.00;;
76107;SDS011;64834;52.516;10.528;2024-03-06T09:18:25;16.88;;;8.75;;
76107;SDS011;64834;52.516;10.528;2024-03-06T09:20:50;17.08;;;8.90;;
76107;SDS011;64834;52.516;10.528;2024-03-06T09:23:15;17.75;;;9.45;;
76107;SDS011;64834;52.516;10.528;2024-03-06T09:25:41;15.70;;;9.27;;
76107;SDS011;64834;52.516;10.528;2024-03-06T09:28:06;17.80;;;7.95;;
76107;SDS011;64834;52.516;10.528;2024-03-06T09:30:33;18.08;;;9.55;;
76107;SDS011;64834;52.516;10.528;2024-03-06T09:32:59;17.75;;;8.98;;
76107;SDS011;64834;52.516;10.528;2024-03-06T09:35:24;18.30;;;8.82;;
76107;SDS011;64834;52.516;10.528;2024-03-06T09:37:49;15.68;;;8.30;;
76107;SDS011;64834;52.516;10.528;2024-03-06T09:40:21;18.13;;;8.80;;
76107;SDS011;64834;52.516;10.528;2024-03-06T09:42:48;16.40;;;7.32;;
76107;SDS011;64834;52.516;10.528;2024-03-06T09:45:14;14.43;;;7.70;;
76107;SDS011;64834;52.516;10.528;2024-03-06T09:47:41;14.80;;;8.82;;
76107;SDS011;64834;52.516;10.528;2024-03-06T09:50:08;15.60;;;7.10;;
76107;SDS011;64834;52.516;10.528;2024-03-06T09:52:36;19.88;;;6.18;;
76107;SDS011;64834;52.516;10.528;2024-03-06T09:55:01;16.95;;;9.55;;
76107;SDS011;64834;52.516;10.528;2024-03-06T09:57:28;18.00;;;8.95;;
76107;SDS011;64834;52.516;10.528;2024-03-06T09:59:54;14.95;;;7.10;;
76107;SDS011;64834;52.516;10.528;2024-03-06T10:02:36;14.88;;;7.22;;
76107;SDS011;64834;52.516;10.528;2024-03-06T10:05:03;16.35;;;7.75;;
76107;SDS011;64834;52.516;10.528;2024-03-06T10:07:30;13.38;;;6.85;;
76107;SDS011;64834;52.516;10.528;2024-03-06T10:09:56;15.60;;;8.38;;
76107;SDS011;64834;52.516;10.528;2024-03-06T10:12:22;15.80;;;8.07;;
76107;SDS011;64834;52.516;10.528;2024-03-06T10:14:50;17.95;;;9.15;;
76107;SDS011;64834;52.516;10.528;2024-03-06T10:17:20;16.50;;;8.23;;
76107;SDS011;64834;52.516;10.528;2024-03-06T10:19:48;12.85;;;7.00;;
76107;SDS011;64834;52.516;10.528;2024-03-06T10:22:16;15.98;;;7.57;;
76107;SDS011;64834;52.516;10.528;2024-03-06T10:24:42;13.25;;;7.07;;
76107;SDS011;64834;52.516;10.528;2024-03-06T10:27:07;15.93;;;8.70;;
76107;SDS011;64834;52.516;10.528;2024-03-06T10:29:34;15.25;;;7.90;;
76107;SDS011;64834;52.516;10.528;2024-03-06T10:32:00;13.10;;;7.45;;
76107;SDS011;64834;52.516;10.528;2024-03-06T10:34:29;13.73;;;8.02;;
76107;SDS011;64834;52.516;10.528;2024-03-06T10:36:55;12.32;;;6.28;;
76107;SDS011;64834;52.516;10.528;2024-03-06T10:39:24;13.65;;;7.55;;
76107;SDS011;64834;52.516;10.528;2024-03-06T10:41:53;13.52;;;6.85;;
76107;SDS011;64834;52.516;10.528;2024-03-06T10:44:23;10.65;;;4.82;;
76107;SDS011;64834;52.516;10.528;2024-03-06T10:46:55;17.42;;;7.75;;
76107;SDS011;64834;52.516;10.528;2024-03-06T10:49:25;16.55;;;7.07;;
76107;SDS011;64834;52.516;10.528;2024-03-06T10:51:52;16.38;;;7.57;;
76107;SDS011;64834;52.516;10.528;2024-03-06T10:54:29;15.20;;;7.45;;
76107;SDS011;64834;52.516;10.528;2024-03-06T10:56:55;11.40;;;7.22;;
76107;SDS011;64834;52.516;10.528;2024-03-06T10:59:21;13.82;;;7.43;;
76107;SDS011;64834;52.516;10.528;2024-03-06T11:01:52;14.43;;;7.60;;
76107;SDS011;64834;52.516;10.528;2024-03-06T11:04:19;12.32;;;7.57;;
76107;SDS011;64834;52.516;10.528;2024-03-06T11:06:45;15.75;;;8.23;;
76107;SDS011;64834;52.516;10.528;2024-03-06T11:09:10;13.55;;;7.55;;
76107;SDS011;64834;52.516;10.528;2024-03-06T11:11:52;14.32;;;6.90;;
76107;SDS011;64834;52.516;10.528;2024-03-06T11:14:21;14.05;;;7.32;;
76107;SDS011;64834;52.516;10.528;2024-03-06T11:17:04;14.98;;;7.22;;
76107;SDS011;64834;52.516;10.528;2024-03-06T11:19:31;12.82;;;7.10;;
76107;SDS011;64834;52.516;10.528;2024-03-06T11:22:17;17.65;;;8.38;;
76107;SDS011;64834;52.516;10.528;2024-03-06T11:24:42;14.02;;;7.40;;
76107;SDS011;64834;52.516;10.528;2024-03-06T11:27:08;15.18;;;7.35;;
76107;SDS011;64834;52.516;10.528;2024-03-06T11:32:35;15.63;;;8.38;;
76107;SDS011;64834;52.516;10.528;2024-03-06T11:35:01;15.15;;;7.93;;
76107;SDS011;64834;52.516;10.528;2024-03-06T11:37:26;14.95;;;8.43;;
76107;SDS011;64834;52.516;10.528;2024-03-06T11:39:52;15.02;;;7.88;;
76107;SDS011;64834;52.516;10.528;2024-03-06T11:42:34;13.43;;;7.80;;
76107;SDS011;64834;52.516;10.528;2024-03-06T11:45:13;14.38;;;8.02;;
76107;SDS011;64834;52.516;10.528;2024-03-06T11:47:59;13.90;;;7.65;;
76107;SDS011;64834;52.516;10.528;2024-03-06T11:50:26;17.00;;;8.63;;
76107;SDS011;64834;52.516;10.528;2024-03-06T11:52:56;15.00;;;8.10;;
76107;SDS011;64834;52.516;10.528;2024-03-06T11:55:23;12.10;;;7.45;;
76107;SDS011;64834;52.516;10.528;2024-03-06T11:57:51;18.27;;;8.93;;
76107;SDS011;64834;52.516;10.528;2024-03-06T12:00:16;14.93;;;8.98;;
76107;SDS011;64834;52.516;10.528;2024-03-06T12:02:42;15.82;;;8.52;;
76107;SDS011;64834;52.516;10.528;2024-03-06T12:05:07;13.75;;;8.00;;
76107;SDS011;64834;52.516;10.528;2024-03-06T12:07:44;17.15;;;8.55;;
76107;SDS011;64834;52.516;10.528;2024-03-06T12:10:13;15.73;;;8.55;;
76107;SDS011;64834;52.516;10.528;2024-03-06T12:12:40;14.73;;;8.80;;
76107;SDS011;64834;52.516;10.528;2024-03-06T12:15:06;12.90;;;7.90;;
76107;SDS011;64834;52.516;10.528;2024-03-06T12:17:41;14.32;;;8.05;;
76107;SDS011;64834;52.516;10.528;2024-03-06T12:20:11;14.30;;;7.95;;
76107;SDS011;64834;52.516;10.528;2024-03-06T12:22:49;13.77;;;8.02;;
76107;SDS011;64834;52.516;10.528;2024-03-06T12:25:25;13.63;;;7.63;;
76107;SDS011;64834;52.516;10.528;2024-03-06T12:27:53;13.23;;;7.78;;
76107;SDS011;64834;52.516;10.528;2024-03-06T12:30:22;13.45;;;8.57;;
76107;SDS011;64834;52.516;10.528;2024-03-06T12:32:57;13.13;;;7.78;;
76107;SDS011;64834;52.516;10.528;2024-03-06T12:35:27;13.48;;;7.30;;
76107;SDS011;64834;52.516;10.528;2024-03-06T12:37:52;12.40;;;7.70;;
76107;SDS011;64834;52.516;10.528;2024-03-06T12:40:18;15.57;;;8.52;;
76107;SDS011;64834;52.516;10.528;2024-03-06T12:42:44;13.52;;;8.02;;
76107;SDS011;64834;52.516;10.528;2024-03-06T12:45:11;13.80;;;8.52;;
76107;SDS011;64834;52.516;10.528;2024-03-06T12:47:40;13.05;;;7.60;;
76107;SDS011;64834;52.516;10.528;2024-03-06T12:50:06;14.05;;;7.63;;
76107;SDS011;64834;52.516;10.528;2024-03-06T12:52:33;13.88;;;8.55;;
76107;SDS011;64834;52.516;10.528;2024-03-06T12:54:59;14.57;;;8.20;;
76107;SDS011;64834;52.516;10.528;2024-03-06T12:57:24;13.98;;;7.43;;
76107;SDS011;64834;52.516;10.528;2024-03-06T12:59:50;12.07;;;7.50;;
76107;SDS011;64834;52.516;10.528;2024-03-06T13:02:15;16.52;;;8.02;;
76107;SDS011;64834;52.516;10.528;2024-03-06T13:04:41;15.43;;;8.15;;
76107;SDS011;64834;52.516;10.528;2024-03-06T13:07:06;13.77;;;7.97;;
76107;SDS011;64834;52.516;10.528;2024-03-06T13:09:31;15.05;;;8.65;;
76107;SDS011;64834;52.516;10.528;2024-03-06T13:11:56;13.80;;;8.45;;
76107;SDS011;64834;52.516;10.528;2024-03-06T13:14:22;14.68;;;7.90;;
76107;SDS011;64834;52.516;10.528;2024-03-06T13:16:47;13.10;;;8.07;;
76107;SDS011;64834;52.516;10.528;2024-03-06T13:19:12;15.88;;;8.25;;
76107;SDS011;64834;52.516;10.528;2024-03-06T13:21:38;15.23;;;7.88;;
76107;SDS011;64834;52.516;10.528;2024-03-06T13:24:04;15.05;;;8.05;;
76107;SDS011;64834;52.516;10.528;2024-03-06T13:26:29;17.23;;;8.50;;
76107;SDS011;64834;52.516;10.528;2024-03-06T13:28:54;13.32;;;7.80;;
76107;SDS011;64834;52.516;10.528;2024-03-06T13:31:20;15.73;;;7.78;;
76107;SDS011;64834;52.516;10.528;2024-03-06T13:33:45;13.85;;;7.65;;
76107;SDS011;64834;52.516;10.528;2024-03-06T13:36:10;16.27;;;8.85;;
76107;SDS011;64834;52.516;10.528;2024-03-06T13:38:36;14.90;;;7.90;;
76107;SDS011;64834;52.516;10.528;2024-03-06T13:41:01;13.35;;;7.60;;
76107;SDS011;64834;52.516;10.528;2024-03-06T13:43:30;12.23;;;7.10;;
76107;SDS011;64834;52.516;10.528;2024-03-06T13:45:56;15.15;;;7.45;;
76107;SDS011;64834;52.516;10.528;2024-03-06T13:48:22;13.65;;;7.15;;
76107;SDS011;64834;52.516;10.528;2024-03-06T13:50:47;12.60;;;7.07;;
76107;SDS011;64834;52.516;10.528;2024-03-06T13:53:13;13.07;;;7.43;;
76107;SDS011;64834;52.516;10.528;2024-03-06T13:55:38;14.48;;;7.80;;
76107;SDS011;64834;52.516;10.528;2024-03-06T13:58:05;15.07;;;7.75;;
76107;SDS011;64834;52.516;10.528;2024-03-06T14:00:30;14.35;;;7.45;;
76107;SDS011;64834;52.516;10.528;2024-03-06T14:02:56;17.52;;;7.50;;
76107;SDS011;64834;52.516;10.528;2024-03-06T14:05:21;13.93;;;7.45;;
76107;SDS011;64834;52.516;10.528;2024-03-06T14:07:49;13.98;;;8.13;;
76107;SDS011;64834;52.516;10.528;2024-03-06T14:10:17;14.15;;;8.00;;
76107;SDS011;64834;52.516;10.528;2024-03-06T14:12:47;13.35;;;8.10;;
76107;SDS011;64834;52.516;10.528;2024-03-06T14:15:16;15.15;;;8.10;;
76107;SDS011;64834;52.516;10.528;2024-03-06T14:17:43;14.13;;;8.00;;
76107;SDS011;64834;52.516;10.528;2024-03-06T14:20:10;15.45;;;9.48;;
76107;SDS011;64834;52.516;10.528;2024-03-06T14:22:37;19.95;;;8.70;;
76107;SDS011;64834;52.516;10.528;2024-03-06T14:25:03;15.68;;;8.63;;
76107;SDS011;64834;52.516;10.528;2024-03-06T14:27:29;16.85;;;8.23;;